createdAt,value
2018-02-10T00:00:11.387Z,0
2018-02-10T00:01:21.380Z,0
2018-02-10T00:02:31.334Z,0
2018-02-10T00:03:41.531Z,0
2018-02-10T00:04:51.479Z,0
2018-02-10T00:06:01.424Z,0
2018-02-10T00:07:11.377Z,0
2018-02-10T00:08:20.819Z,0
2018-02-10T00:09:30.497Z,0
2018-02-10T00:10:40.189Z,0
2018-02-10T00:11:49.965Z,0
2018-02-10T00:12:59.925Z,0
2018-02-10T00:14:09.362Z,0
2018-02-10T00:15:19.057Z,0
2018-02-10T00:16:29.011Z,0
2018-02-10T00:17:38.710Z,0
2018-02-10T00:18:48.650Z,0
2018-02-10T00:19:58.348Z,0
2018-02-10T00:21:08.286Z,0
2018-02-10T00:22:17.971Z,0
2018-02-10T00:23:27.911Z,0
2018-02-10T00:24:37.865Z,0
2018-02-10T00:25:47.817Z,0
2018-02-10T00:26:57.274Z,0
2018-02-10T00:28:07.235Z,0
2018-02-10T00:29:17.181Z,0
2018-02-10T00:30:27.128Z,0
2018-02-10T00:31:37.082Z,0
2018-02-10T00:32:46.781Z,0
2018-02-10T00:33:56.461Z,0
2018-02-10T00:35:06.404Z,0
2018-02-10T00:36:16.098Z,0
2018-02-10T00:37:26.047Z,0
2018-02-10T00:38:35.999Z,0
2018-02-10T00:39:45.946Z,0
2018-02-10T00:40:55.892Z,0
2018-02-10T00:42:05.832Z,0
2018-02-10T00:43:15.780Z,0
2018-02-10T00:44:25.474Z,0
2018-02-10T00:45:34.905Z,0
2018-02-10T00:46:44.333Z,0
2018-02-10T00:47:54.281Z,0
2018-02-10T00:49:03.963Z,0
2018-02-10T00:50:13.914Z,0
2018-02-10T00:51:23.871Z,0
2018-02-10T00:52:33.584Z,0
2018-02-10T00:53:43.529Z,0
2018-02-10T00:54:53.564Z,0
2018-02-10T00:56:03.508Z,0
2018-02-10T00:57:13.464Z,0
2018-02-10T00:58:23.166Z,0
2018-02-10T00:59:32.869Z,0
2018-02-10T01:00:42.829Z,0
2018-02-10T01:01:52.309Z,0
2018-02-10T01:03:02.258Z,0
2018-02-10T01:04:11.948Z,0
2018-02-10T01:05:21.896Z,0
2018-02-10T01:06:31.581Z,0
2018-02-10T01:07:41.779Z,0
2018-02-10T01:08:51.727Z,0
2018-02-10T01:10:01.731Z,0
2018-02-10T01:11:11.438Z,0
2018-02-10T01:12:21.390Z,0
2018-02-10T01:13:31.349Z,0
2018-02-10T01:14:40.780Z,0
2018-02-10T01:15:50.486Z,0
2018-02-10T01:17:00.435Z,0
2018-02-10T01:18:10.389Z,0
2018-02-10T01:19:20.329Z,0
2018-02-10T01:20:30.274Z,0
2018-02-10T01:21:40.209Z,0
2018-02-10T01:22:50.160Z,0
2018-02-10T01:24:00.109Z,0
2018-02-10T01:25:10.064Z,0
2018-02-10T01:26:20.006Z,0
2018-02-10T01:27:29.970Z,0
2018-02-10T01:28:39.913Z,0
2018-02-10T01:29:49.598Z,0
2018-02-10T01:30:59.287Z,0
2018-02-10T01:32:09.237Z,0
2018-02-10T01:33:18.988Z,0
2018-02-10T01:34:28.936Z,0
2018-02-10T01:35:38.624Z,0
2018-02-10T01:36:48.304Z,0
2018-02-10T01:37:57.737Z,0
2018-02-10T01:39:07.181Z,0
2018-02-10T01:40:17.134Z,0
2018-02-10T01:41:27.112Z,0
2018-02-10T01:42:36.798Z,0
2018-02-10T01:43:46.739Z,0
2018-02-10T01:44:56.677Z,0
2018-02-10T01:46:06.607Z,0
2018-02-10T01:47:16.547Z,0
2018-02-10T01:48:26.506Z,0
2018-02-10T01:49:36.450Z,0
2018-02-10T01:50:46.396Z,0
2018-02-10T01:51:56.332Z,0
2018-02-10T01:53:06.279Z,0
2018-02-10T01:54:15.966Z,0
2018-02-10T01:55:25.651Z,0
2018-02-10T01:56:35.589Z,0
2018-02-10T01:57:45.546Z,0
2018-02-10T01:58:55.482Z,0
2018-02-10T02:00:05.439Z,0
2018-02-10T02:01:15.375Z,0
2018-02-10T02:02:25.318Z,0
2018-02-10T02:03:35.268Z,0
2018-02-10T02:04:44.951Z,0
2018-02-10T02:05:54.884Z,0
2018-02-10T02:07:04.838Z,0
2018-02-10T02:08:14.838Z,0
2018-02-10T02:09:24.782Z,0
2018-02-10T02:10:34.498Z,0
2018-02-10T02:11:44.185Z,0
2018-02-10T02:12:54.126Z,0
2018-02-10T02:14:04.071Z,0
2018-02-10T02:15:14.012Z,0
2018-02-10T02:16:23.710Z,0
2018-02-10T02:17:33.157Z,0
2018-02-10T02:18:42.892Z,0
2018-02-10T02:19:52.837Z,0
2018-02-10T02:21:02.781Z,0
2018-02-10T02:22:12.719Z,0
2018-02-10T02:23:22.655Z,0
2018-02-10T02:24:32.093Z,0
2018-02-10T02:25:42.038Z,0
2018-02-10T02:26:52.044Z,0
2018-02-10T02:28:01.982Z,0
2018-02-10T02:29:11.933Z,0
2018-02-10T02:30:21.623Z,0
2018-02-10T02:31:31.053Z,0
2018-02-10T02:32:40.749Z,0
2018-02-10T02:33:50.704Z,0
2018-02-10T02:35:00.397Z,0
2018-02-10T02:36:10.347Z,0
2018-02-10T02:37:20.291Z,0
2018-02-10T02:38:30.228Z,0
2018-02-10T02:39:39.659Z,0
2018-02-10T02:40:49.352Z,0
2018-02-10T02:41:59.314Z,0
2018-02-10T02:43:09.018Z,0
2018-02-10T02:44:18.999Z,0
2018-02-10T02:45:28.965Z,0
2018-02-10T02:46:38.661Z,0
2018-02-10T02:47:47.836Z,0
2018-02-10T02:48:57.779Z,0
2018-02-10T02:50:07.717Z,0
2018-02-10T02:51:17.401Z,0
2018-02-10T02:52:27.345Z,0
2018-02-10T02:53:37.059Z,0
2018-02-10T02:54:46.995Z,0
2018-02-10T02:55:56.934Z,0
2018-02-10T02:57:06.910Z,0
2018-02-10T02:58:16.908Z,0
2018-02-10T02:59:26.848Z,0
2018-02-10T03:00:36.796Z,0
2018-02-10T03:01:46.551Z,0
2018-02-10T03:02:56.494Z,0
2018-02-10T03:04:06.174Z,0
2018-02-10T03:05:15.864Z,0
2018-02-10T03:06:25.820Z,0
2018-02-10T03:07:35.765Z,0
2018-02-10T03:08:45.457Z,0
2018-02-10T03:09:55.412Z,0
2018-02-10T03:11:05.350Z,0
2018-02-10T03:12:15.032Z,0
2018-02-10T03:13:24.763Z,0
2018-02-10T03:14:34.703Z,0
2018-02-10T03:15:44.641Z,0
2018-02-10T03:16:54.331Z,0
2018-02-10T03:18:04.274Z,0
2018-02-10T03:19:14.030Z,0
2018-02-10T03:20:24.029Z,0
2018-02-10T03:21:34.030Z,0
2018-02-10T03:22:43.724Z,0
2018-02-10T03:23:53.660Z,0
2018-02-10T03:25:03.597Z,0
2018-02-10T03:26:13.532Z,0
2018-02-10T03:27:23.472Z,0
2018-02-10T03:28:33.156Z,0
2018-02-10T03:29:43.113Z,0
2018-02-10T03:30:52.550Z,0
2018-02-10T03:32:02.496Z,0
2018-02-10T03:33:12.181Z,0
2018-02-10T03:34:21.865Z,0
2018-02-10T03:35:31.332Z,0
2018-02-10T03:36:41.018Z,0
2018-02-10T03:37:50.711Z,0
2018-02-10T03:39:00.659Z,0
2018-02-10T03:40:10.344Z,0
2018-02-10T03:41:20.288Z,0
2018-02-10T03:42:30.231Z,0
2018-02-10T03:43:40.178Z,0
2018-02-10T03:44:49.870Z,0
2018-02-10T03:45:59.550Z,0
2018-02-10T03:47:08.978Z,0
2018-02-10T03:48:18.928Z,0
2018-02-10T03:49:28.616Z,0
2018-02-10T03:50:38.612Z,0
2018-02-10T03:51:48.056Z,0
2018-02-10T03:52:57.745Z,0
2018-02-10T03:54:07.676Z,0
2018-02-10T03:55:17.359Z,0
2018-02-10T03:56:27.299Z,0
2018-02-10T03:57:37.248Z,0
2018-02-10T03:58:47.199Z,0
2018-02-10T03:59:57.128Z,0
2018-02-10T04:01:06.815Z,0
2018-02-10T04:02:16.814Z,0
2018-02-10T04:03:26.753Z,0
2018-02-10T04:04:36.186Z,0
2018-02-10T04:05:46.126Z,0
2018-02-10T04:06:56.075Z,0
2018-02-10T04:08:06.020Z,0
2018-02-10T04:09:15.706Z,0
2018-02-10T04:10:25.389Z,0
2018-02-10T04:11:35.335Z,0
2018-02-10T04:12:45.279Z,0
2018-02-10T04:13:55.217Z,0
2018-02-10T04:15:04.915Z,0
2018-02-10T04:16:14.357Z,0
2018-02-10T04:17:24.049Z,0
2018-02-10T04:18:33.988Z,0
2018-02-10T04:19:43.927Z,0
2018-02-10T04:20:53.862Z,0
2018-02-10T04:22:03.542Z,0
2018-02-10T04:23:13.484Z,0
2018-02-10T04:24:23.430Z,0
2018-02-10T04:25:33.363Z,0
2018-02-10T04:26:43.311Z,0
2018-02-10T04:27:52.990Z,0
2018-02-10T04:29:02.924Z,0
2018-02-10T04:30:12.357Z,0
2018-02-10T04:31:22.291Z,0
2018-02-10T04:32:31.965Z,0
2018-02-10T04:33:41.897Z,0
2018-02-10T04:34:51.596Z,0
2018-02-10T04:36:01.283Z,0
2018-02-10T04:37:10.710Z,0
2018-02-10T04:38:20.644Z,0
2018-02-10T04:39:30.587Z,0
2018-02-10T04:40:40.524Z,0
2018-02-10T04:41:49.956Z,0
2018-02-10T04:42:59.903Z,0
2018-02-10T04:44:09.853Z,0
2018-02-10T04:45:19.556Z,0
2018-02-10T04:46:29.500Z,0
2018-02-10T04:47:39.453Z,0
2018-02-10T04:48:49.389Z,0
2018-02-10T04:49:59.327Z,0
2018-02-10T04:51:09.010Z,0
2018-02-10T04:52:18.946Z,0
2018-02-10T04:53:28.903Z,0
2018-02-10T04:54:38.594Z,0
2018-02-10T04:55:48.279Z,0
2018-02-10T04:56:58.215Z,0
2018-02-10T04:58:08.151Z,0
2018-02-10T04:59:17.839Z,0
2018-02-10T05:00:27.528Z,0
2018-02-10T05:01:37.467Z,0
2018-02-10T05:02:47.151Z,0
2018-02-10T05:03:57.098Z,0
2018-02-10T05:05:07.046Z,0
2018-02-10T05:06:16.997Z,0
2018-02-10T05:07:26.440Z,0
2018-02-10T05:08:36.391Z,0
2018-02-10T05:09:46.331Z,0
2018-02-10T05:10:56.289Z,0
2018-02-10T05:12:06.226Z,0
2018-02-10T05:13:16.202Z,0
2018-02-10T05:14:26.147Z,0
2018-02-10T05:15:35.833Z,0
2018-02-10T05:16:45.784Z,0
2018-02-10T05:17:55.468Z,0
2018-02-10T05:19:05.433Z,0
2018-02-10T05:20:15.114Z,0
2018-02-10T05:21:25.099Z,0
2018-02-10T05:22:35.038Z,0
2018-02-10T05:23:44.976Z,0
2018-02-10T05:24:54.914Z,0
2018-02-10T05:26:04.862Z,0
2018-02-10T05:27:14.547Z,0
2018-02-10T05:28:24.234Z,0
2018-02-10T05:29:33.929Z,0
2018-02-10T05:30:43.873Z,0
2018-02-10T05:31:53.823Z,0
2018-02-10T05:33:03.506Z,0
2018-02-10T05:34:13.193Z,0
2018-02-10T05:35:22.872Z,0
2018-02-10T05:36:33.026Z,0
2018-02-10T05:37:42.971Z,0
2018-02-10T05:38:52.937Z,0
2018-02-10T05:40:02.877Z,0
2018-02-10T05:41:12.580Z,0
2018-02-10T05:42:22.521Z,0
2018-02-10T05:43:32.458Z,0
2018-02-10T05:44:42.400Z,0
2018-02-10T05:45:52.084Z,0
2018-02-10T05:47:02.079Z,0
2018-02-10T05:48:12.035Z,0
2018-02-10T05:49:21.975Z,0
2018-02-10T05:50:31.932Z,0
2018-02-10T05:51:41.889Z,0
2018-02-10T05:52:51.853Z,0
2018-02-10T05:54:01.793Z,0
2018-02-10T05:55:11.214Z,0
2018-02-10T05:56:21.150Z,0
2018-02-10T05:57:31.157Z,0
2018-02-10T05:58:41.114Z,0
2018-02-10T05:59:50.801Z,0
2018-02-10T06:01:00.486Z,0
2018-02-10T06:02:10.432Z,0
2018-02-10T06:03:20.363Z,0
2018-02-10T06:04:30.313Z,0
2018-02-10T06:05:40.248Z,4
2018-02-10T06:06:50.189Z,0
2018-02-10T06:07:59.607Z,4
2018-02-10T06:09:09.559Z,4
2018-02-10T06:10:19.296Z,4
2018-02-10T06:11:29.242Z,4
2018-02-10T06:12:39.208Z,4
2018-02-10T06:13:49.203Z,8
2018-02-10T06:14:58.628Z,8
2018-02-10T06:16:08.309Z,12
2018-02-10T06:17:18.301Z,12
2018-02-10T06:18:28.243Z,12
2018-02-10T06:19:38.181Z,16
2018-02-10T06:20:47.933Z,20
2018-02-10T06:21:57.873Z,20
2018-02-10T06:23:07.828Z,24
2018-02-10T06:24:17.765Z,28
2018-02-10T06:25:27.726Z,32
2018-02-10T06:26:37.444Z,36
2018-02-10T06:27:47.439Z,40
2018-02-10T06:28:57.391Z,44
2018-02-10T06:30:07.351Z,48
2018-02-10T06:31:17.290Z,52
2018-02-10T06:32:27.230Z,60
2018-02-10T06:33:36.921Z,68
2018-02-10T06:34:46.873Z,72
2018-02-10T06:35:56.815Z,76
2018-02-10T06:37:06.789Z,84
2018-02-10T06:38:16.483Z,92
2018-02-10T06:39:26.445Z,100
2018-02-10T06:40:36.395Z,112
2018-02-10T06:41:46.344Z,124
2018-02-10T06:42:56.284Z,140
2018-02-10T06:44:05.976Z,152
2018-02-10T06:45:15.923Z,168
2018-02-10T06:46:25.871Z,180
2018-02-10T06:47:35.821Z,192
2018-02-10T06:48:45.240Z,208
2018-02-10T06:49:55.200Z,228
2018-02-10T06:51:04.888Z,248
2018-02-10T06:52:14.832Z,268
2018-02-10T06:53:24.763Z,288
2018-02-10T06:54:34.699Z,304
2018-02-10T06:55:44.127Z,324
2018-02-10T06:56:54.063Z,344
2018-02-10T06:58:04.009Z,368
2018-02-10T06:59:13.945Z,380
2018-02-10T07:00:23.898Z,400
2018-02-10T07:01:33.843Z,412
2018-02-10T07:02:43.799Z,432
2018-02-10T07:03:53.478Z,448
2018-02-10T07:05:03.429Z,468
2018-02-10T07:06:13.117Z,472
2018-02-10T07:07:22.799Z,488
2018-02-10T07:08:32.754Z,516
2018-02-10T07:09:42.689Z,544
2018-02-10T07:10:52.393Z,580
2018-02-10T07:12:02.352Z,616
2018-02-10T07:13:12.033Z,636
2018-02-10T07:14:21.985Z,628
2018-02-10T07:15:31.935Z,600
2018-02-10T07:16:41.870Z,596
2018-02-10T07:17:51.856Z,596
2018-02-10T07:19:01.269Z,608
2018-02-10T07:20:10.731Z,628
2018-02-10T07:21:20.683Z,648
2018-02-10T07:22:30.624Z,652
2018-02-10T07:23:40.569Z,656
2018-02-10T07:24:50.515Z,684
2018-02-10T07:26:00.468Z,716
2018-02-10T07:27:10.148Z,732
2018-02-10T07:28:19.832Z,752
2018-02-10T07:29:29.779Z,780
2018-02-10T07:30:39.717Z,796
2018-02-10T07:31:49.412Z,812
2018-02-10T07:32:59.355Z,832
2018-02-10T07:34:09.314Z,852
2018-02-10T07:35:19.262Z,888
2018-02-10T07:36:28.944Z,916
2018-02-10T07:37:38.668Z,956
2018-02-10T07:38:48.617Z,960
2018-02-10T07:39:58.549Z,976
2018-02-10T07:41:08.493Z,1004
2018-02-10T07:42:18.432Z,1024
2018-02-10T07:43:28.377Z,1048
2018-02-10T07:44:38.327Z,1088
2018-02-10T07:45:48.264Z,1120
2018-02-10T07:46:58.216Z,1164
2018-02-10T07:48:07.379Z,1212
2018-02-10T07:49:17.066Z,1232
2018-02-10T07:50:27.007Z,1252
2018-02-10T07:51:35.928Z,1292
2018-02-10T07:52:45.624Z,1344
2018-02-10T07:53:55.329Z,1384
2018-02-10T07:55:05.269Z,1428
2018-02-10T07:56:14.961Z,1468
2018-02-10T07:57:24.901Z,1508
2018-02-10T07:58:34.618Z,1568
2018-02-10T07:59:44.296Z,1588
2018-02-10T08:00:53.986Z,1580
2018-02-10T08:02:03.695Z,1604
2018-02-10T08:03:13.377Z,1664
2018-02-10T08:04:23.074Z,1728
2018-02-10T08:05:33.020Z,1780
2018-02-10T08:06:42.965Z,1844
2018-02-10T08:07:52.932Z,1960
2018-02-10T08:09:02.642Z,2072
2018-02-10T08:10:12.575Z,2092
2018-02-10T08:11:22.517Z,2064
2018-02-10T08:12:32.198Z,2104
2018-02-10T08:13:41.895Z,2236
2018-02-10T08:14:51.837Z,2372
2018-02-10T08:16:01.778Z,2400
2018-02-10T08:17:11.473Z,2388
2018-02-10T08:18:21.440Z,2396
2018-02-10T08:19:31.138Z,2392
2018-02-10T08:20:41.093Z,2504
2018-02-10T08:21:51.032Z,2680
2018-02-10T08:23:00.977Z,2784
2018-02-10T08:24:10.915Z,2776
2018-02-10T08:25:20.612Z,2756
2018-02-10T08:26:30.599Z,2696
2018-02-10T08:27:40.543Z,2604
2018-02-10T08:28:50.500Z,2552
2018-02-10T08:30:00.446Z,2548
2018-02-10T08:31:10.394Z,2556
2018-02-10T08:32:20.346Z,2648
2018-02-10T08:33:30.030Z,2824
2018-02-10T08:34:39.719Z,2960
2018-02-10T08:35:49.664Z,3008
2018-02-10T08:36:59.349Z,3080
2018-02-10T08:38:09.032Z,3132
2018-02-10T08:39:18.983Z,3040
2018-02-10T08:40:28.683Z,2964
2018-02-10T08:41:38.633Z,2928
2018-02-10T08:42:48.074Z,3024
2018-02-10T08:43:57.768Z,3148
2018-02-10T08:45:07.720Z,3188
2018-02-10T08:46:17.677Z,3156
2018-02-10T08:47:27.365Z,3148
2018-02-10T08:48:37.309Z,3196
2018-02-10T08:49:47.009Z,3196
2018-02-10T08:50:56.701Z,3236
2018-02-10T08:52:06.636Z,3324
2018-02-10T08:53:16.576Z,3396
2018-02-10T08:54:26.532Z,3452
2018-02-10T08:55:36.217Z,3548
2018-02-10T08:56:46.160Z,3656
2018-02-10T08:57:56.096Z,3744
2018-02-10T08:59:06.045Z,3884
2018-02-10T09:00:16.006Z,3960
2018-02-10T09:01:25.953Z,4068
2018-02-10T09:02:35.896Z,4152
2018-02-10T09:03:45.594Z,4320
2018-02-10T09:04:55.557Z,4492
2018-02-10T09:06:05.499Z,4540
2018-02-10T09:07:15.453Z,4548
2018-02-10T09:08:25.397Z,4720
2018-02-10T09:09:35.095Z,4732
2018-02-10T09:10:45.044Z,4228
2018-02-10T09:11:54.985Z,3768
2018-02-10T09:13:04.942Z,3492
2018-02-10T09:14:14.897Z,3444
2018-02-10T09:15:24.841Z,3364
2018-02-10T09:16:34.786Z,3116
2018-02-10T09:17:44.488Z,2932
2018-02-10T09:18:54.427Z,2900
2018-02-10T09:20:04.111Z,2872
2018-02-10T09:21:13.546Z,2796
2018-02-10T09:22:23.230Z,2840
2018-02-10T09:23:32.919Z,2936
2018-02-10T09:24:42.875Z,2968
2018-02-10T09:25:52.872Z,2992
2018-02-10T09:27:02.598Z,2912
2018-02-10T09:28:12.551Z,2772
2018-02-10T09:29:22.295Z,2728
2018-02-10T09:30:32.243Z,2852
2018-02-10T09:31:41.943Z,2924
2018-02-10T09:32:51.881Z,3036
2018-02-10T09:34:01.570Z,3112
2018-02-10T09:35:11.273Z,3152
2018-02-10T09:36:21.218Z,3340
2018-02-10T09:37:31.171Z,3388
2018-02-10T09:38:41.124Z,3348
2018-02-10T09:39:50.814Z,3392
2018-02-10T09:41:00.533Z,3588
2018-02-10T09:42:10.474Z,3932
2018-02-10T09:43:20.488Z,4184
2018-02-10T09:44:30.178Z,4316
2018-02-10T09:45:39.889Z,4320
2018-02-10T09:46:49.846Z,4444
2018-02-10T09:47:59.535Z,4616
2018-02-10T09:49:09.219Z,4732
2018-02-10T09:50:18.905Z,4796
2018-02-10T09:51:28.853Z,4748
2018-02-10T09:52:38.561Z,4600
2018-02-10T09:53:48.578Z,4352
2018-02-10T09:54:58.265Z,4436
2018-02-10T09:56:08.221Z,4636
2018-02-10T09:57:17.910Z,5088
2018-02-10T09:58:27.595Z,5576
2018-02-10T09:59:37.534Z,6012
2018-02-10T10:00:47.492Z,6360
2018-02-10T10:01:57.439Z,6808
2018-02-10T10:03:07.126Z,7108
2018-02-10T10:04:17.087Z,6916
2018-02-10T10:05:27.036Z,7028
2018-02-10T10:06:36.964Z,7340
2018-02-10T10:07:46.666Z,7892
2018-02-10T10:08:56.616Z,8256
2018-02-10T10:10:06.546Z,8172
2018-02-10T10:11:16.518Z,8172
2018-02-10T10:12:26.470Z,8252
2018-02-10T10:13:36.413Z,8248
2018-02-10T10:14:46.099Z,8340
2018-02-10T10:15:55.784Z,8264
2018-02-10T10:17:05.471Z,8112
2018-02-10T10:18:15.169Z,8180
2018-02-10T10:19:25.128Z,8304
2018-02-10T10:20:35.093Z,8240
2018-02-10T10:21:45.031Z,7944
2018-02-10T10:22:54.988Z,7432
2018-02-10T10:24:04.936Z,6760
2018-02-10T10:25:14.642Z,6300
2018-02-10T10:26:24.338Z,5656
2018-02-10T10:27:34.297Z,4896
2018-02-10T10:28:44.241Z,4632
2018-02-10T10:29:54.188Z,4816
2018-02-10T10:31:04.129Z,5084
2018-02-10T10:32:14.080Z,5308
2018-02-10T10:33:24.040Z,5760
2018-02-10T10:34:33.732Z,6064
2018-02-10T10:35:43.448Z,6440
2018-02-10T10:36:53.139Z,6736
2018-02-10T10:38:03.100Z,6980
2018-02-10T10:39:12.790Z,6864
2018-02-10T10:40:22.233Z,6336
2018-02-10T10:41:32.216Z,5776
2018-02-10T10:42:41.906Z,5380
2018-02-10T10:43:51.964Z,5140
2018-02-10T10:45:01.914Z,4968
2018-02-10T10:46:11.871Z,4960
2018-02-10T10:47:21.639Z,5040
2018-02-10T10:48:31.599Z,5052
2018-02-10T10:49:41.565Z,4660
2018-02-10T10:50:51.271Z,4284
2018-02-10T10:52:00.955Z,4160
2018-02-10T10:53:10.973Z,4312
2018-02-10T10:54:20.909Z,4404
2018-02-10T10:55:30.610Z,4512
2018-02-10T10:56:40.285Z,4640
2018-02-10T10:57:50.001Z,4712
2018-02-10T10:58:59.700Z,5184
2018-02-10T11:00:09.651Z,5512
2018-02-10T11:01:19.598Z,5480
2018-02-10T11:02:29.563Z,5548
2018-02-10T11:03:39.515Z,5868
2018-02-10T11:04:49.462Z,6072
2018-02-10T11:05:59.400Z,6292
2018-02-10T11:07:09.348Z,6548
2018-02-10T11:08:19.301Z,6868
2018-02-10T11:09:29.247Z,7168
2018-02-10T11:10:39.183Z,7444
2018-02-10T11:11:49.140Z,7632
2018-02-10T11:12:59.086Z,7900
2018-02-10T11:14:08.786Z,8044
2018-02-10T11:15:18.738Z,7944
2018-02-10T11:16:28.701Z,7864
2018-02-10T11:17:38.649Z,7644
2018-02-10T11:18:48.661Z,7612
2018-02-10T11:19:58.608Z,7728
2018-02-10T11:21:08.552Z,7912
2018-02-10T11:22:18.600Z,8000
2018-02-10T11:23:28.547Z,7888
2018-02-10T11:24:38.238Z,8128
2018-02-10T11:25:47.930Z,8684
2018-02-10T11:26:57.621Z,9132
2018-02-10T11:28:07.334Z,9780
2018-02-10T11:29:17.293Z,10632
2018-02-10T11:30:26.997Z,10808
2018-02-10T11:31:36.966Z,10960
2018-02-10T11:32:47.182Z,11288
2018-02-10T11:33:56.924Z,11728
2018-02-10T11:35:06.622Z,12448
2018-02-10T11:36:16.586Z,13220
2018-02-10T11:37:26.589Z,13480
2018-02-10T11:38:36.282Z,13408
2018-02-10T11:39:46.223Z,13564
2018-02-10T11:40:55.930Z,14012
2018-02-10T11:42:05.363Z,14880
2018-02-10T11:43:15.326Z,15044
2018-02-10T11:44:25.046Z,15604
2018-02-10T11:45:34.730Z,16164
2018-02-10T11:46:44.421Z,16160
2018-02-10T11:47:54.373Z,16044
2018-02-10T11:49:04.359Z,16572
2018-02-10T11:50:14.365Z,17536
2018-02-10T11:51:24.314Z,18432
2018-02-10T11:52:34.277Z,18912
2018-02-10T11:53:43.460Z,19264
2018-02-10T11:54:53.486Z,19648
2018-02-10T11:56:03.228Z,19264
2018-02-10T11:57:13.166Z,18656
2018-02-10T11:58:23.112Z,18880
2018-02-10T11:59:33.302Z,18848
2018-02-10T12:00:42.786Z,18208
2018-02-10T12:01:52.223Z,18080
2018-02-10T12:03:02.166Z,18240
2018-02-10T12:04:12.124Z,16804
2018-02-10T12:05:21.565Z,16236
2018-02-10T12:06:31.258Z,17312
2018-02-10T12:07:40.705Z,17888
2018-02-10T12:08:50.652Z,16584
2018-02-10T12:10:00.362Z,15452
2018-02-10T12:11:10.082Z,15652
2018-02-10T12:12:20.032Z,16124
2018-02-10T12:13:29.492Z,16024
2018-02-10T12:14:39.279Z,15924
2018-02-10T12:15:48.979Z,16288
2018-02-10T12:16:58.940Z,16692
2018-02-10T12:18:08.911Z,17536
2018-02-10T12:19:18.854Z,18016
2018-02-10T12:20:28.559Z,18336
2018-02-10T12:21:38.250Z,18080
2018-02-10T12:22:47.692Z,16732
2018-02-10T12:23:57.663Z,16920
2018-02-10T12:25:07.644Z,17728
2018-02-10T12:26:17.619Z,18656
2018-02-10T12:27:27.583Z,19872
2018-02-10T12:28:37.522Z,21376
2018-02-10T12:29:47.219Z,22944
2018-02-10T12:30:57.182Z,23456
2018-02-10T12:32:07.289Z,24032
2018-02-10T12:33:17.239Z,23840
2018-02-10T12:34:26.678Z,22336
2018-02-10T12:35:36.622Z,21344
2018-02-10T12:36:46.302Z,19680
2018-02-10T12:37:55.728Z,18720
2018-02-10T12:39:05.694Z,18688
2018-02-10T12:40:15.668Z,19008
2018-02-10T12:41:25.354Z,19136
2018-02-10T12:42:35.044Z,18880
2018-02-10T12:43:44.744Z,18144
2018-02-10T12:44:54.736Z,16648
2018-02-10T12:46:04.695Z,15944
2018-02-10T12:47:14.657Z,15452
2018-02-10T12:48:24.348Z,16320
2018-02-10T12:49:34.048Z,17760
2018-02-10T12:50:44.018Z,16992
2018-02-10T12:51:53.966Z,18304
2018-02-10T12:53:03.928Z,20096
2018-02-10T12:54:13.621Z,21920
2018-02-10T12:55:23.589Z,23296
2018-02-10T12:56:33.613Z,25312
2018-02-10T12:57:43.574Z,29088
2018-02-10T12:58:53.531Z,34112
2018-02-10T13:00:03.251Z,27808
2018-02-10T13:01:12.962Z,24224
2018-02-10T13:02:22.951Z,20928
2018-02-10T13:03:32.892Z,20256
2018-02-10T13:04:42.852Z,24096
2018-02-10T13:05:52.551Z,42560
2018-02-10T13:07:02.247Z,59648
2018-02-10T13:08:12.215Z,62816
2018-02-10T13:09:21.918Z,60832
2018-02-10T13:10:31.875Z,57952
2018-02-10T13:11:41.826Z,52864
2018-02-10T13:12:51.517Z,48960
2018-02-10T13:14:01.477Z,58912
2018-02-10T13:15:11.181Z,57888
2018-02-10T13:16:21.126Z,56256
2018-02-10T13:17:31.101Z,59424
2018-02-10T13:18:41.060Z,68032
2018-02-10T13:19:51.096Z,72192
2018-02-10T13:21:00.761Z,70080
2018-02-10T13:22:10.713Z,62976
2018-02-10T13:23:20.661Z,61248
2018-02-10T13:24:30.374Z,62208
2018-02-10T13:25:39.808Z,61728
2018-02-10T13:26:49.753Z,55296
2018-02-10T13:27:59.700Z,47744
2018-02-10T13:29:09.665Z,42336
2018-02-10T13:30:19.633Z,35104
2018-02-10T13:31:29.623Z,28672
2018-02-10T13:32:39.321Z,27072
2018-02-10T13:33:49.286Z,23424
2018-02-10T13:34:59.256Z,24064
2018-02-10T13:36:08.963Z,26272
2018-02-10T13:37:18.921Z,36832
2018-02-10T13:38:28.874Z,44672
2018-02-10T13:39:38.818Z,50688
2018-02-10T13:40:48.827Z,53280
2018-02-10T13:41:58.534Z,55072
2018-02-10T13:43:08.608Z,52960
2018-02-10T13:44:18.562Z,49856
2018-02-10T13:45:28.510Z,51680
2018-02-10T13:46:38.465Z,49280
2018-02-10T13:47:48.184Z,46464
2018-02-10T13:48:58.145Z,46240
2018-02-10T13:50:08.117Z,44768
2018-02-10T13:51:18.080Z,40352
2018-02-10T13:52:28.126Z,37792
2018-02-10T13:53:38.079Z,37312
2018-02-10T13:54:48.037Z,34752
2018-02-10T13:55:58.029Z,33056
2018-02-10T13:57:07.732Z,32992
2018-02-10T13:58:17.203Z,31584
2018-02-10T13:59:27.158Z,23712
2018-02-10T14:00:37.129Z,21888
2018-02-10T14:01:47.076Z,20192
2018-02-10T14:02:57.035Z,18624
2018-02-10T14:04:07.000Z,17504
2018-02-10T14:05:16.727Z,16136
2018-02-10T14:06:26.701Z,15400
2018-02-10T14:07:36.394Z,15564
2018-02-10T14:08:46.089Z,12612
2018-02-10T14:09:55.538Z,11656
2018-02-10T14:11:04.988Z,12180
2018-02-10T14:12:14.694Z,15648
2018-02-10T14:13:24.642Z,15840
2018-02-10T14:14:34.386Z,12452
2018-02-10T14:15:44.332Z,12584
2018-02-10T14:16:54.301Z,13156
2018-02-10T14:18:04.250Z,13468
2018-02-10T14:19:13.938Z,13068
2018-02-10T14:20:23.930Z,12044
2018-02-10T14:21:33.887Z,11304
2018-02-10T14:22:43.852Z,10732
2018-02-10T14:23:53.802Z,10436
2018-02-10T14:25:03.749Z,10368
2018-02-10T14:26:13.709Z,10068
2018-02-10T14:27:23.682Z,9432
2018-02-10T14:28:33.640Z,8712
2018-02-10T14:29:43.585Z,8048
2018-02-10T14:30:53.541Z,7524
2018-02-10T14:32:03.508Z,7184
2018-02-10T14:33:13.205Z,7132
2018-02-10T14:34:23.165Z,7076
2018-02-10T14:35:32.856Z,6996
2018-02-10T14:36:42.552Z,6996
2018-02-10T14:37:52.252Z,6744
2018-02-10T14:39:02.218Z,6708
2018-02-10T14:40:11.940Z,6704
2018-02-10T14:41:21.942Z,6308
2018-02-10T14:42:31.384Z,5716
2018-02-10T14:43:41.351Z,5196
2018-02-10T14:44:51.297Z,4832
2018-02-10T14:46:01.272Z,4392
2018-02-10T14:47:10.708Z,4148
2018-02-10T14:48:20.395Z,4044
2018-02-10T14:49:30.356Z,4152
2018-02-10T14:50:40.293Z,4180
2018-02-10T14:51:50.239Z,3912
2018-02-10T14:53:00.210Z,3784
2018-02-10T14:54:09.902Z,3860
2018-02-10T14:55:19.618Z,3856
2018-02-10T14:56:29.323Z,3824
2018-02-10T14:57:39.266Z,3856
2018-02-10T14:58:48.757Z,3680
2018-02-10T14:59:58.474Z,3564
2018-02-10T15:01:08.168Z,3516
2018-02-10T15:02:18.126Z,3432
2018-02-10T15:03:28.080Z,3324
2018-02-10T15:04:38.081Z,3264
2018-02-10T15:05:47.528Z,3276
2018-02-10T15:06:57.218Z,3284
2018-02-10T15:08:06.987Z,3172
2018-02-10T15:09:16.676Z,2924
2018-02-10T15:10:26.631Z,2744
2018-02-10T15:11:36.344Z,2644
2018-02-10T15:12:46.285Z,2688
2018-02-10T15:13:56.237Z,2724
2018-02-10T15:15:05.921Z,2612
2018-02-10T15:16:15.874Z,2444
2018-02-10T15:17:25.322Z,2240
2018-02-10T15:18:35.270Z,2048
2018-02-10T15:19:45.221Z,1928
2018-02-10T15:20:55.175Z,1924
2018-02-10T15:22:04.618Z,1948
2018-02-10T15:23:14.570Z,1944
2018-02-10T15:24:24.274Z,1900
2018-02-10T15:25:33.967Z,1820
2018-02-10T15:26:43.923Z,1656
2018-02-10T15:27:53.371Z,1512
2018-02-10T15:29:03.322Z,1464
2018-02-10T15:30:13.015Z,1424
2018-02-10T15:31:22.959Z,1380
2018-02-10T15:32:32.923Z,1352
2018-02-10T15:33:42.874Z,1280
2018-02-10T15:34:52.563Z,1228
2018-02-10T15:36:02.285Z,1244
2018-02-10T15:37:12.238Z,1236
2018-02-10T15:38:21.692Z,1220
2018-02-10T15:39:31.681Z,1164
2018-02-10T15:40:41.658Z,1072
2018-02-10T15:41:51.617Z,1000
2018-02-10T15:43:01.566Z,940
2018-02-10T15:44:11.524Z,868
2018-02-10T15:45:21.213Z,796
2018-02-10T15:46:31.182Z,740
2018-02-10T15:47:41.124Z,688
2018-02-10T15:48:50.817Z,648
2018-02-10T15:50:00.825Z,616
2018-02-10T15:51:10.839Z,596
2018-02-10T15:52:20.786Z,552
2018-02-10T15:53:30.730Z,504
2018-02-10T15:54:40.435Z,460
2018-02-10T15:55:50.150Z,428
2018-02-10T15:56:59.846Z,396
2018-02-10T15:58:09.809Z,380
2018-02-10T15:59:19.750Z,364
2018-02-10T16:00:29.451Z,340
2018-02-10T16:01:39.397Z,320
2018-02-10T16:02:48.842Z,296
2018-02-10T16:03:58.796Z,284
2018-02-10T16:05:08.756Z,268